createdAt,value
2017-08-02T00:00:13.458Z,930.76
2017-08-02T00:00:26.898Z,930.76
2017-08-02T00:00:40.327Z,930.76
2017-08-02T00:00:53.769Z,930.74
2017-08-02T00:01:06.178Z,930.76
2017-08-02T00:01:19.616Z,930.75
2017-08-02T00:01:33.004Z,930.73
2017-08-02T00:01:46.419Z,930.74
2017-08-02T00:01:59.850Z,930.74
2017-08-02T00:02:13.232Z,930.76
2017-08-02T00:02:26.678Z,930.72
2017-08-02T00:03:11.640Z,930.73
2017-08-02T00:03:48.469Z,930.71
2017-08-02T00:04:21.736Z,930.71
2017-08-02T00:04:36.658Z,930.72
2017-08-02T00:05:10.601Z,930.68
2017-08-02T00:06:08.821Z,930.68
2017-08-02T00:06:42.463Z,930.69
2017-08-02T00:06:57.295Z,930.71
2017-08-02T00:07:21.450Z,930.68
2017-08-02T00:10:00.316Z,930.72
2017-08-02T00:10:34.274Z,930.73
2017-08-02T00:10:49.084Z,930.72
2017-08-02T00:12:09.929Z,930.7
2017-08-02T00:12:48.587Z,930.67
2017-08-02T00:13:12.713Z,930.67
2017-08-02T00:13:27.319Z,930.66
2017-08-02T00:13:42.246Z,930.7
2017-08-02T00:15:10.348Z,930.7
2017-08-02T00:15:34.483Z,930.71
2017-08-02T00:16:22.356Z,930.71
2017-08-02T00:16:36.901Z,930.69
2017-08-02T00:16:51.667Z,930.7
2017-08-02T00:17:25.538Z,930.7
2017-08-02T00:18:42.195Z,930.7
2017-08-02T00:19:15.717Z,930.69
2017-08-02T00:19:39.563Z,930.72
2017-08-02T00:20:03.134Z,930.71
2017-08-02T00:20:36.392Z,930.67
2017-08-02T00:21:53.367Z,930.69
2017-08-02T00:22:08.177Z,930.66
2017-08-02T00:23:49.760Z,930.68
2017-08-02T00:24:13.739Z,930.67
2017-08-02T00:24:48.096Z,930.68
2017-08-02T00:25:12.280Z,930.68
2017-08-02T00:25:46.062Z,930.68
2017-08-02T00:26:01.138Z,930.7
2017-08-02T00:27:17.597Z,930.68
2017-08-02T00:28:11.000Z,930.68
2017-08-02T00:29:08.792Z,930.68
2017-08-02T00:29:33.194Z,930.66
2017-08-02T00:30:16.823Z,930.65
2017-08-02T00:30:41.078Z,930.64
2017-08-02T00:30:55.191Z,930.64
2017-08-02T00:31:19.221Z,930.64
2017-08-02T00:32:35.461Z,930.67
2017-08-02T00:33:08.525Z,930.67
2017-08-02T00:33:23.492Z,930.68
2017-08-02T00:33:57.308Z,930.69
2017-08-02T00:34:30.744Z,930.72
2017-08-02T00:34:54.527Z,930.75
2017-08-02T00:35:19.060Z,930.73
2017-08-02T00:35:52.603Z,930.7
2017-08-02T00:36:40.944Z,930.78
2017-08-02T00:38:17.583Z,930.8
2017-08-02T00:39:06.090Z,930.75
2017-08-02T00:39:20.432Z,930.75
2017-08-02T00:39:44.476Z,930.78
2017-08-02T00:40:00.460Z,930.76
2017-08-02T00:41:50.792Z,930.84
2017-08-02T00:42:49.096Z,930.86
2017-08-02T00:43:03.679Z,930.85
2017-08-02T00:43:17.974Z,930.82
2017-08-02T00:44:01.166Z,930.85
2017-08-02T00:44:57.805Z,930.83
2017-08-02T00:45:21.956Z,930.87
2017-08-02T00:45:55.405Z,930.87
2017-08-02T00:48:51.551Z,930.87
2017-08-02T00:49:15.633Z,930.88
2017-08-02T00:49:40.173Z,930.9
2017-08-02T00:49:54.921Z,930.9
2017-08-02T00:50:09.785Z,930.91
2017-08-02T00:50:58.183Z,930.9
2017-08-02T00:52:05.287Z,930.9
2017-08-02T00:53:13.275Z,930.91
2017-08-02T00:53:37.268Z,930.92
2017-08-02T00:54:01.739Z,930.93
2017-08-02T00:55:13.558Z,930.92
2017-08-02T00:55:28.639Z,930.93
2017-08-02T00:55:43.600Z,930.92
2017-08-02T00:56:35.960Z,930.95
2017-08-02T00:56:59.805Z,930.93
2017-08-02T00:57:24.636Z,930.9
2017-08-02T00:58:40.347Z,930.9
2017-08-02T00:59:04.491Z,930.9
2017-08-02T00:59:19.250Z,930.88
2017-08-02T00:59:33.216Z,930.91
2017-08-02T01:00:06.799Z,930.88
2017-08-02T01:00:22.342Z,930.86
2017-08-02T01:00:46.621Z,930.89
2017-08-02T01:02:13.132Z,930.97
2017-08-02T01:03:19.943Z,930.99
2017-08-02T01:04:26.090Z,930.96
2017-08-02T01:04:50.536Z,931.01
2017-08-02T01:05:14.728Z,930.96
2017-08-02T01:05:49.863Z,931
2017-08-02T01:06:04.418Z,930.99
2017-08-02T01:07:01.754Z,930.95
2017-08-02T01:07:35.516Z,930.95
2017-08-02T01:08:00.986Z,930.97
2017-08-02T01:08:25.083Z,930.95
2017-08-02T01:09:22.949Z,930.92
2017-08-02T01:09:37.937Z,930.93
2017-08-02T01:10:11.396Z,930.98
2017-08-02T01:10:35.889Z,930.98
2017-08-02T01:11:09.517Z,930.99
2017-08-02T01:12:07.192Z,931.02
2017-08-02T01:12:30.700Z,931.01
2017-08-02T01:12:46.135Z,930.99
2017-08-02T01:13:20.058Z,931.03
2017-08-02T01:13:54.754Z,931.01
2017-08-02T01:15:35.389Z,931.08
2017-08-02T01:15:49.822Z,931.11
2017-08-02T01:16:03.806Z,931.11
2017-08-02T01:16:17.479Z,931.1
2017-08-02T01:16:31.434Z,931.11
2017-08-02T01:17:18.591Z,931.05
2017-08-02T01:17:32.050Z,931.09
2017-08-02T01:18:05.407Z,931.04
2017-08-02T01:18:37.775Z,931.08
2017-08-02T01:19:02.268Z,931.04
2017-08-02T01:19:16.811Z,931.04
2017-08-02T01:19:30.473Z,931.05
2017-08-02T01:19:53.991Z,931.04
2017-08-02T01:20:07.877Z,931.01
2017-08-02T01:20:31.574Z,931.02
2017-08-02T01:20:54.971Z,931.08
2017-08-02T01:21:18.683Z,931.05
2017-08-02T01:21:31.319Z,931.03
2017-08-02T01:21:55.214Z,931.05
2017-08-02T01:22:18.553Z,931.03
2017-08-02T01:24:02.631Z,931.03
2017-08-02T01:24:59.574Z,931.13
2017-08-02T01:25:55.663Z,931.08
2017-08-02T01:26:09.389Z,931.11
2017-08-02T01:26:46.502Z,931.12
2017-08-02T01:27:01.646Z,931.11
2017-08-02T01:27:15.943Z,931.09
2017-08-02T01:27:38.663Z,931.09
2017-08-02T01:27:52.642Z,931.1
2017-08-02T01:28:06.243Z,931.09
2017-08-02T01:28:19.705Z,931.07
2017-08-02T01:28:34.642Z,931.08
2017-08-02T01:28:48.430Z,931.1
2017-08-02T01:29:02.300Z,931.08
2017-08-02T01:29:58.415Z,931.12
2017-08-02T01:30:21.816Z,931.11
2017-08-02T01:30:45.210Z,931.11
2017-08-02T01:30:59.514Z,931.09
2017-08-02T01:31:46.236Z,931.11
2017-08-02T01:32:33.023Z,931.1
2017-08-02T01:32:55.299Z,931.11
2017-08-02T01:33:28.369Z,931.1
2017-08-02T01:33:42.689Z,931.09
2017-08-02T01:33:56.442Z,931.08
2017-08-02T01:34:10.434Z,931.07
2017-08-02T01:35:25.866Z,931.11
2017-08-02T01:35:50.436Z,931.12
2017-08-02T01:36:04.357Z,931.11
2017-08-02T01:36:18.430Z,931.12
2017-08-02T01:36:31.826Z,931.17
2017-08-02T01:36:55.442Z,931.15
2017-08-02T01:37:08.466Z,931.12
2017-08-02T01:37:21.153Z,931.18
2017-08-02T01:37:34.668Z,931.16
2017-08-02T01:37:58.589Z,931.15
2017-08-02T01:38:22.646Z,931.15
2017-08-02T01:39:19.514Z,931.14
2017-08-02T01:39:51.961Z,931.13
2017-08-02T01:40:05.738Z,931.13
2017-08-02T01:40:19.922Z,931.1
2017-08-02T01:40:33.639Z,931.17
2017-08-02T01:41:11.349Z,931.14
2017-08-02T01:41:25.420Z,931.13
2017-08-02T01:41:39.258Z,931.15
2017-08-02T01:42:01.579Z,931.14
2017-08-02T01:42:24.628Z,931.15
2017-08-02T01:42:57.459Z,931.19
2017-08-02T01:43:21.335Z,931.17
2017-08-02T01:43:44.163Z,931.16
2017-08-02T01:43:58.080Z,931.17
2017-08-02T01:44:11.695Z,931.2
2017-08-02T01:44:34.862Z,931.19
2017-08-02T01:44:48.422Z,931.21
2017-08-02T01:45:10.747Z,931.2
2017-08-02T01:45:34.699Z,931.19
2017-08-02T01:46:21.581Z,931.18
2017-08-02T01:46:45.174Z,931.19
2017-08-02T01:46:58.693Z,931.18
2017-08-02T01:47:12.820Z,931.15
2017-08-02T01:47:36.212Z,931.19
2017-08-02T01:47:50.401Z,931.18
2017-08-02T01:48:14.461Z,931.21
2017-08-02T01:48:37.627Z,931.21
2017-08-02T01:48:52.248Z,931.22
2017-08-02T01:49:06.387Z,931.2
2017-08-02T01:49:29.296Z,931.2
2017-08-02T01:49:53.192Z,931.18
2017-08-02T01:50:07.398Z,931.21
2017-08-02T01:50:31.052Z,931.2
2017-08-02T01:50:53.426Z,931.19
2017-08-02T01:51:07.376Z,931.21
2017-08-02T01:51:21.556Z,931.17
2017-08-02T01:51:33.938Z,931.19
2017-08-02T01:51:48.063Z,931.2
2017-08-02T01:52:01.523Z,931.22
2017-08-02T01:52:15.268Z,931.22
2017-08-02T01:52:38.535Z,931.25
2017-08-02T01:52:52.243Z,931.23
2017-08-02T01:53:06.006Z,931.22
2017-08-02T01:53:19.878Z,931.18
2017-08-02T01:53:57.026Z,931.22
2017-08-02T01:54:10.608Z,931.22
2017-08-02T01:54:24.532Z,931.23
2017-08-02T01:54:37.740Z,931.21
2017-08-02T01:55:01.170Z,931.23
2017-08-02T01:55:14.752Z,931.24
2017-08-02T01:55:27.752Z,931.21
2017-08-02T01:55:51.425Z,931.24
2017-08-02T01:56:14.309Z,931.23
2017-08-02T01:56:27.316Z,931.23
2017-08-02T01:56:41.230Z,931.22
2017-08-02T01:56:54.924Z,931.21
2017-08-02T01:57:18.338Z,931.21
2017-08-02T01:57:55.008Z,931.21
2017-08-02T01:58:08.881Z,931.24
2017-08-02T01:58:22.770Z,931.21
2017-08-02T01:58:44.811Z,931.21
2017-08-02T01:58:59.344Z,931.22
2017-08-02T01:59:13.910Z,931.19
2017-08-02T01:59:37.111Z,931.21
2017-08-02T01:59:50.812Z,931.22
2017-08-02T02:00:03.476Z,931.23
2017-08-02T02:00:16.652Z,931.23
2017-08-02T02:00:40.153Z,931.23
2017-08-02T02:00:54.279Z,931.21
2017-08-02T02:01:07.503Z,931.23
2017-08-02T02:01:20.977Z,931.22
2017-08-02T02:01:34.710Z,931.21
2017-08-02T02:01:58.078Z,931.24
2017-08-02T02:02:11.783Z,931.2
2017-08-02T02:02:35.703Z,931.21
2017-08-02T02:02:58.573Z,931.21
2017-08-02T02:03:12.230Z,931.2
2017-08-02T02:03:25.652Z,931.2
2017-08-02T02:03:39.195Z,931.21
2017-08-02T02:03:53.162Z,931.2
2017-08-02T02:04:06.197Z,931.21
2017-08-02T02:04:19.908Z,931.24
2017-08-02T02:04:33.405Z,931.23
2017-08-02T02:04:46.373Z,931.21
2017-08-02T02:04:59.540Z,931.21
2017-08-02T02:05:13.032Z,931.21
2017-08-02T02:05:36.418Z,931.22
2017-08-02T02:05:59.661Z,931.2
2017-08-02T02:06:13.180Z,931.2
2017-08-02T02:06:27.308Z,931.2
2017-08-02T02:06:40.976Z,931.22
2017-08-02T02:06:53.921Z,931.18
2017-08-02T02:07:07.616Z,931.21
2017-08-02T02:07:20.594Z,931.18
2017-08-02T02:07:34.690Z,931.2
2017-08-02T02:07:48.204Z,931.21
2017-08-02T02:08:11.765Z,931.18
2017-08-02T02:08:25.518Z,931.17
2017-08-02T02:08:38.958Z,931.18
2017-08-02T02:09:02.370Z,931.18
2017-08-02T02:09:16.101Z,931.18
2017-08-02T02:09:29.834Z,931.18
2017-08-02T02:09:42.468Z,931.16
2017-08-02T02:09:55.468Z,931.19
2017-08-02T02:10:08.657Z,931.16
2017-08-02T02:10:22.419Z,931.16
2017-08-02T02:10:36.305Z,931.17
2017-08-02T02:10:49.792Z,931.19
2017-08-02T02:11:02.719Z,931.16
2017-08-02T02:11:16.413Z,931.2
2017-08-02T02:11:52.898Z,931.17
2017-08-02T02:12:06.645Z,931.21
2017-08-02T02:12:20.116Z,931.21
2017-08-02T02:12:43.532Z,931.22
2017-08-02T02:12:56.456Z,931.2
2017-08-02T02:13:10.363Z,931.19
2017-08-02T02:13:23.010Z,931.2
2017-08-02T02:13:36.718Z,931.21
2017-08-02T02:13:50.222Z,931.19
2017-08-02T02:14:04.821Z,931.2
2017-08-02T02:14:18.568Z,931.2
2017-08-02T02:14:31.512Z,931.17
2017-08-02T02:14:45.246Z,931.12
2017-08-02T02:14:58.735Z,931.16
2017-08-02T02:15:12.453Z,931.18
2017-08-02T02:15:24.918Z,931.18
2017-08-02T02:15:37.830Z,931.16
2017-08-02T02:15:51.304Z,931.15
2017-08-02T02:16:05.045Z,931.15
2017-08-02T02:16:18.574Z,931.19
2017-08-02T02:16:31.755Z,931.18
2017-08-02T02:16:44.718Z,931.16
2017-08-02T02:16:58.437Z,931.15
2017-08-02T02:17:12.167Z,931.17
2017-08-02T02:17:25.103Z,931.13
2017-08-02T02:17:38.056Z,931.12
2017-08-02T02:18:01.339Z,931.17
2017-08-02T02:18:14.849Z,931.13
2017-08-02T02:18:27.853Z,931.13
2017-08-02T02:18:41.335Z,931.14
2017-08-02T02:18:53.795Z,931.14
2017-08-02T02:19:07.327Z,931.17
2017-08-02T02:19:20.803Z,931.18
2017-08-02T02:19:33.830Z,931.2
2017-08-02T02:19:57.080Z,931.19
2017-08-02T02:20:08.945Z,931.17
2017-08-02T02:20:44.851Z,931.2
2017-08-02T02:20:58.330Z,931.18
2017-08-02T02:21:10.793Z,931.22
2017-08-02T02:21:23.791Z,931.2
2017-08-02T02:21:36.745Z,931.21
2017-08-02T02:21:50.022Z,931.23
2017-08-02T02:22:03.224Z,931.23
2017-08-02T02:22:16.775Z,931.23
2017-08-02T02:22:53.232Z,931.2
2017-08-02T02:23:06.702Z,931.2
2017-08-02T02:23:19.690Z,931.19
2017-08-02T02:23:42.733Z,931.21
2017-08-02T02:23:56.283Z,931.2
2017-08-02T02:24:10.064Z,931.24
2017-08-02T02:24:23.005Z,931.21
2017-08-02T02:24:36.492Z,931.22
2017-08-02T02:24:50.159Z,931.24
2017-08-02T02:25:03.314Z,931.21
2017-08-02T02:25:16.310Z,931.23
2017-08-02T02:25:30.202Z,931.24
2017-08-02T02:25:43.183Z,931.3
2017-08-02T02:25:56.656Z,931.24
2017-08-02T02:26:09.622Z,931.3
2017-08-02T02:26:22.611Z,931.25
2017-08-02T02:26:36.337Z,931.27
2017-08-02T02:26:49.311Z,931.32
2017-08-02T02:27:02.275Z,931.27
2017-08-02T02:27:25.363Z,931.25
2017-08-02T02:27:39.232Z,931.27
2017-08-02T02:27:52.725Z,931.28
2017-08-02T02:28:06.428Z,931.27
2017-08-02T02:28:20.201Z,931.26
2017-08-02T02:28:33.697Z,931.27
2017-08-02T02:28:47.193Z,931.3
2017-08-02T02:29:00.378Z,931.28
2017-08-02T02:29:13.592Z,931.29
2017-08-02T02:29:27.037Z,931.25
2017-08-02T02:29:40.901Z,931.28
2017-08-02T02:29:54.599Z,931.21
2017-08-02T02:30:08.289Z,931.22
2017-08-02T02:30:21.244Z,931.24
2017-08-02T02:30:34.829Z,931.21
2017-08-02T02:30:47.797Z,931.24
2017-08-02T02:31:01.290Z,931.23
2017-08-02T02:31:14.986Z,931.22
2017-08-02T02:31:28.438Z,931.25
2017-08-02T02:31:41.940Z,931.2
2017-08-02T02:31:55.300Z,931.24
2017-08-02T02:32:08.965Z,931.21
2017-08-02T02:32:22.703Z,931.18
2017-08-02T02:32:36.403Z,931.17
2017-08-02T02:32:49.880Z,931.22
2017-08-02T02:33:03.375Z,931.21
2017-08-02T02:33:16.887Z,931.18
2017-08-02T02:33:30.423Z,931.19
2017-08-02T02:33:44.081Z,931.18
2017-08-02T02:33:57.068Z,931.19
2017-08-02T02:34:10.118Z,931.19
2017-08-02T02:34:22.538Z,931.16
2017-08-02T02:34:36.050Z,931.16
2017-08-02T02:34:49.493Z,931.16
2017-08-02T02:35:02.510Z,931.16
2017-08-02T02:35:15.984Z,931.11
2017-08-02T02:35:29.471Z,931.1
2017-08-02T02:35:43.179Z,931.13
2017-08-02T02:35:56.697Z,931.15
2017-08-02T02:36:09.665Z,931.11
2017-08-02T02:36:23.424Z,931.09
2017-08-02T02:36:36.933Z,931.12
2017-08-02T02:36:50.446Z,931.12
2017-08-02T02:37:03.401Z,931.14
2017-08-02T02:37:16.509Z,931.12
2017-08-02T02:37:29.718Z,931.11
2017-08-02T02:37:43.199Z,931.16
2017-08-02T02:38:06.367Z,931.11
2017-08-02T02:38:19.328Z,931.13
2017-08-02T02:38:33.042Z,931.15
2017-08-02T02:38:46.596Z,931.12
2017-08-02T02:39:00.138Z,931.12
2017-08-02T02:39:46.587Z,931.15
2017-08-02T02:40:00.082Z,931.11
2017-08-02T02:40:13.080Z,931.12
2017-08-02T02:40:26.587Z,931.13
2017-08-02T02:40:40.084Z,931.14
2017-08-02T02:40:53.267Z,931.12
2017-08-02T02:41:06.746Z,931.16
2017-08-02T02:41:20.228Z,931.12
2017-08-02T02:41:33.924Z,931.13
2017-08-02T02:41:47.634Z,931.11
2017-08-02T02:42:00.614Z,931.12
2017-08-02T02:42:13.804Z,931.1
2017-08-02T02:42:26.260Z,931.11
2017-08-02T02:42:39.817Z,931.09
2017-08-02T02:42:52.738Z,931.15
2017-08-02T02:43:05.869Z,931.11
2017-08-02T02:43:19.711Z,931.13
2017-08-02T02:43:33.256Z,931.11
2017-08-02T02:43:46.221Z,931.11
2017-08-02T02:44:00.099Z,931.13
2017-08-02T02:44:13.097Z,931.14
2017-08-02T02:44:26.861Z,931.13
2017-08-02T02:44:39.845Z,931.15
2017-08-02T02:45:03.080Z,931.1
2017-08-02T02:45:25.836Z,931.11
2017-08-02T02:45:39.579Z,931.13
2017-08-02T02:45:53.045Z,931.15
2017-08-02T02:46:16.274Z,931.13
2017-08-02T02:46:29.281Z,931.14
2017-08-02T02:46:42.832Z,931.13
2017-08-02T02:46:56.541Z,931.12
2017-08-02T02:47:19.585Z,931.13
2017-08-02T02:47:33.146Z,931.12
2017-08-02T02:47:46.844Z,931.13
2017-08-02T02:47:59.828Z,931.12
2017-08-02T02:48:13.349Z,931.13
2017-08-02T02:48:27.061Z,931.14
2017-08-02T02:48:40.779Z,931.11
2017-08-02T02:48:54.276Z,931.07
2017-08-02T02:49:07.273Z,931.07
2017-08-02T02:49:21.010Z,931.04
2017-08-02T02:49:34.699Z,931.03
2017-08-02T02:49:48.181Z,931.04
2017-08-02T02:50:01.155Z,931.02
2017-08-02T02:50:14.737Z,931.04
2017-08-02T02:50:27.703Z,931.03
2017-08-02T02:51:04.462Z,930.94
2017-08-02T02:51:17.915Z,930.94
2017-08-02T02:51:31.411Z,930.91
2017-08-02T02:51:44.345Z,930.94
2017-08-02T02:51:57.582Z,930.95
2017-08-02T02:52:20.798Z,930.91
2017-08-02T02:52:34.504Z,930.98
2017-08-02T02:52:47.991Z,930.98
2017-08-02T02:53:01.522Z,930.97
2017-08-02T02:53:15.069Z,931.03
2017-08-02T02:53:28.569Z,930.98
2017-08-02T02:53:41.600Z,930.97
2017-08-02T02:53:54.623Z,930.99
2017-08-02T02:54:06.528Z,931
2017-08-02T02:54:19.503Z,931
2017-08-02T02:54:33.251Z,931.02
2017-08-02T02:54:46.711Z,930.99
2017-08-02T02:54:59.684Z,931.04
2017-08-02T02:55:13.601Z,931
2017-08-02T02:55:27.353Z,931.04
2017-08-02T02:55:40.407Z,931.03
2017-08-02T02:55:53.981Z,931.01
2017-08-02T02:56:07.160Z,931.03
2017-08-02T02:56:20.893Z,931.05
2017-08-02T02:56:34.687Z,931.05
2017-08-02T02:56:48.162Z,931.01
2017-08-02T02:57:00.776Z,931.03
2017-08-02T02:57:14.280Z,931.05
2017-08-02T02:57:27.702Z,931.05
2017-08-02T02:57:41.421Z,931.03
2017-08-02T02:57:54.420Z,931.02
2017-08-02T02:58:30.623Z,931.01
2017-08-02T02:58:44.146Z,930.99
2017-08-02T02:58:57.658Z,931.01
2017-08-02T02:59:10.820Z,931.01
2017-08-02T02:59:24.335Z,931
2017-08-02T02:59:38.363Z,930.96
2017-08-02T02:59:52.079Z,930.95
2017-08-02T03:00:04.514Z,930.94
2017-08-02T03:00:17.996Z,930.96
2017-08-02T03:00:30.436Z,930.96
2017-08-02T03:00:43.902Z,930.97
2017-08-02T03:00:56.908Z,930.95
2017-08-02T03:01:10.353Z,930.92
2017-08-02T03:01:23.910Z,930.93
2017-08-02T03:01:37.642Z,930.91
2017-08-02T03:01:50.585Z,930.86
2017-08-02T03:02:04.297Z,930.9
2017-08-02T03:02:17.268Z,930.87
2017-08-02T03:02:30.442Z,930.88
2017-08-02T03:02:42.929Z,930.87
2017-08-02T03:02:56.416Z,930.88
2017-08-02T03:03:19.316Z,930.87
2017-08-02T03:03:32.251Z,930.86
2017-08-02T03:03:45.178Z,930.88
2017-08-02T03:03:58.155Z,930.83
2017-08-02T03:04:11.601Z,930.86
2017-08-02T03:04:24.646Z,930.86
2017-08-02T03:04:47.870Z,930.87
2017-08-02T03:05:00.843Z,930.84
2017-08-02T03:05:14.287Z,930.88
2017-08-02T03:05:27.766Z,930.89
2017-08-02T03:05:41.278Z,930.87
2017-08-02T03:05:54.800Z,930.85
2017-08-02T03:06:08.339Z,930.88
2017-08-02T03:06:22.272Z,930.88
2017-08-02T03:06:35.771Z,930.88
2017-08-02T03:06:48.731Z,930.87
2017-08-02T03:07:02.418Z,930.88
2017-08-02T03:07:15.952Z,930.86
2017-08-02T03:07:29.698Z,930.86
2017-08-02T03:07:42.630Z,930.86
2017-08-02T03:07:56.150Z,930.84
2017-08-02T03:08:09.122Z,930.83
2017-08-02T03:08:22.679Z,930.86
2017-08-02T03:08:35.114Z,930.86
2017-08-02T03:08:48.627Z,930.84
2017-08-02T03:09:02.142Z,930.83
2017-08-02T03:09:15.090Z,930.85
2017-08-02T03:09:28.121Z,930.84
2017-08-02T03:09:41.830Z,930.8
2017-08-02T03:09:55.343Z,930.84
2017-08-02T03:10:09.078Z,930.76
2017-08-02T03:10:22.579Z,930.77
2017-08-02T03:10:35.045Z,930.82
2017-08-02T03:10:48.551Z,930.77
2017-08-02T03:11:02.092Z,930.76
2017-08-02T03:11:15.237Z,930.77
2017-08-02T03:11:28.205Z,930.75
2017-08-02T03:11:41.176Z,930.72
2017-08-02T03:11:54.164Z,930.77
2017-08-02T03:12:07.141Z,930.79
2017-08-02T03:12:20.843Z,930.75
2017-08-02T03:12:34.368Z,930.73
2017-08-02T03:12:47.912Z,930.71
2017-08-02T03:13:01.611Z,930.75
2017-08-02T03:13:15.089Z,930.77
2017-08-02T03:13:28.199Z,930.74
2017-08-02T03:13:41.357Z,930.74
2017-08-02T03:13:54.098Z,930.71
2017-08-02T03:14:07.659Z,930.75
2017-08-02T03:14:20.643Z,930.76
2017-08-02T03:14:34.114Z,930.76
2017-08-02T03:14:47.840Z,930.74
2017-08-02T03:15:01.064Z,930.75
2017-08-02T03:15:14.593Z,930.77
2017-08-02T03:15:28.285Z,930.74
2017-08-02T03:15:41.782Z,930.74
2017-08-02T03:15:55.282Z,930.72
2017-08-02T03:16:08.918Z,930.75
2017-08-02T03:16:22.644Z,930.75
2017-08-02T03:16:35.182Z,930.72
2017-08-02T03:16:48.635Z,930.77
2017-08-02T03:17:02.142Z,930.76
2017-08-02T03:17:15.095Z,930.73
2017-08-02T03:17:28.669Z,930.73
2017-08-02T03:17:42.366Z,930.75
2017-08-02T03:17:55.378Z,930.75
2017-08-02T03:18:09.065Z,930.72
2017-08-02T03:18:21.568Z,930.68
2017-08-02T03:18:35.052Z,930.7
2017-08-02T03:18:48.540Z,930.71
2017-08-02T03:19:02.251Z,930.7
2017-08-02T03:19:15.730Z,930.69
2017-08-02T03:19:29.233Z,930.71
2017-08-02T03:19:42.807Z,930.73
2017-08-02T03:19:55.248Z,930.73
2017-08-02T03:20:09.000Z,930.71
2017-08-02T03:20:22.502Z,930.72
2017-08-02T03:20:35.461Z,930.73
2017-08-02T03:20:48.634Z,930.73
2017-08-02T03:21:01.665Z,930.72
2017-08-02T03:21:15.224Z,930.74
2017-08-02T03:21:28.699Z,930.71
2017-08-02T03:21:42.195Z,930.74
2017-08-02T03:21:55.093Z,930.73
2017-08-02T03:22:08.031Z,930.73
2017-08-02T03:22:21.513Z,930.77
2017-08-02T03:22:34.926Z,930.73
2017-08-02T03:22:48.442Z,930.75
2017-08-02T03:23:01.916Z,930.72
2017-08-02T03:23:15.406Z,930.74
2017-08-02T03:23:28.961Z,930.76
2017-08-02T03:23:42.445Z,930.78
2017-08-02T03:23:55.344Z,930.77
2017-08-02T03:24:08.330Z,930.73
2017-08-02T03:24:21.734Z,930.76
2017-08-02T03:24:35.157Z,930.77
2017-08-02T03:24:48.580Z,930.78
2017-08-02T03:25:02.042Z,930.76
2017-08-02T03:25:15.500Z,930.77
2017-08-02T03:25:28.994Z,930.78
2017-08-02T03:25:42.455Z,930.77
2017-08-02T03:25:55.369Z,930.73
2017-08-02T03:26:08.854Z,930.75
2017-08-02T03:26:21.736Z,930.76
2017-08-02T03:26:34.650Z,930.73
2017-08-02T03:26:48.125Z,930.74
2017-08-02T03:27:01.626Z,930.74
2017-08-02T03:27:15.103Z,930.73
2017-08-02T03:27:28.577Z,930.74
2017-08-02T03:27:42.072Z,930.73
2017-08-02T03:27:55.087Z,930.78
2017-08-02T03:28:08.064Z,930.71
2017-08-02T03:28:21.577Z,930.75
2017-08-02T03:28:35.039Z,930.74
2017-08-02T03:28:48.443Z,930.76
2017-08-02T03:29:01.394Z,930.73
2017-08-02T03:29:14.846Z,930.74
2017-08-02T03:29:28.308Z,930.74
2017-08-02T03:29:42.559Z,930.75
2017-08-02T03:29:56.229Z,930.76
2017-08-02T03:30:09.217Z,930.71
2017-08-02T03:30:22.734Z,930.75
2017-08-02T03:30:35.675Z,930.74
2017-08-02T03:30:48.633Z,930.71
2017-08-02T03:31:02.114Z,930.72
2017-08-02T03:31:15.616Z,930.71
2017-08-02T03:31:29.051Z,930.7
2017-08-02T03:31:42.107Z,930.72
2017-08-02T03:31:55.118Z,930.74
2017-08-02T03:32:08.603Z,930.71
2017-08-02T03:32:22.045Z,930.73
2017-08-02T03:32:35.565Z,930.74
2017-08-02T03:32:48.480Z,930.69
2017-08-02T03:33:00.945Z,930.74
2017-08-02T03:33:14.374Z,930.73
2017-08-02T03:33:27.392Z,930.7
2017-08-02T03:33:40.882Z,930.67
2017-08-02T03:33:54.407Z,930.7
2017-08-02T03:34:07.449Z,930.7
2017-08-02T03:34:19.842Z,930.71
2017-08-02T03:34:33.283Z,930.71
2017-08-02T03:34:47.043Z,930.69
2017-08-02T03:35:00.548Z,930.73
2017-08-02T03:35:13.440Z,930.73
2017-08-02T03:35:26.391Z,930.74
2017-08-02T03:35:39.870Z,930.75
2017-08-02T03:35:53.538Z,930.75
2017-08-02T03:36:06.506Z,930.77
2017-08-02T03:36:19.450Z,930.76
2017-08-02T03:36:31.856Z,930.76
2017-08-02T03:36:45.301Z,930.77
2017-08-02T03:36:58.696Z,930.76
2017-08-02T03:37:11.609Z,930.8
2017-08-02T03:37:25.178Z,930.79
2017-08-02T03:37:38.620Z,930.8
2017-08-02T03:37:52.110Z,930.79
2017-08-02T03:38:05.634Z,930.82
2017-08-02T03:38:18.580Z,930.83
2017-08-02T03:38:31.525Z,930.81
2017-08-02T03:38:44.427Z,930.77
2017-08-02T03:38:57.379Z,930.81
2017-08-02T03:39:10.846Z,930.81
2017-08-02T03:39:24.319Z,930.81
2017-08-02T03:39:37.836Z,930.81
2017-08-02T03:39:50.989Z,930.8
2017-08-02T03:40:03.363Z,930.8
2017-08-02T03:40:16.801Z,930.77
2017-08-02T03:40:30.239Z,930.77
2017-08-02T03:40:43.671Z,930.75
2017-08-02T03:40:57.104Z,930.8
2017-08-02T03:41:10.577Z,930.8
2017-08-02T03:41:24.159Z,930.78
2017-08-02T03:41:37.601Z,930.76
2017-08-02T03:41:51.016Z,930.75
2017-08-02T03:42:03.969Z,930.76
2017-08-02T03:42:16.876Z,930.79
2017-08-02T03:42:30.405Z,930.78
2017-08-02T03:42:43.818Z,930.78
2017-08-02T03:42:57.270Z,930.8
2017-08-02T03:43:09.130Z,930.81
2017-08-02T03:43:22.608Z,930.77
2017-08-02T03:43:37.004Z,930.78
2017-08-02T03:43:50.469Z,930.81
2017-08-02T03:44:03.901Z,930.83
2017-08-02T03:44:16.362Z,930.8
2017-08-02T03:44:29.850Z,930.81
2017-08-02T03:44:43.314Z,930.83
2017-08-02T03:44:56.953Z,930.87
2017-08-02T03:45:09.385Z,930.89
2017-08-02T03:45:22.364Z,930.9
2017-08-02T03:45:35.824Z,930.87
2017-08-02T03:45:49.319Z,930.88
2017-08-02T03:46:02.265Z,930.88
2017-08-02T03:46:15.779Z,930.86
2017-08-02T03:46:28.711Z,930.9
2017-08-02T03:46:42.219Z,930.87
2017-08-02T03:46:55.154Z,930.88
2017-08-02T03:47:08.660Z,930.89
2017-08-02T03:47:22.099Z,930.88
2017-08-02T03:47:35.014Z,930.87
2017-08-02T03:47:48.494Z,930.9
2017-08-02T03:48:01.945Z,930.9
2017-08-02T03:48:15.360Z,930.93
2017-08-02T03:48:28.295Z,930.93
2017-08-02T03:48:41.185Z,930.88
2017-08-02T03:48:54.163Z,930.89
2017-08-02T03:49:07.621Z,930.92
2017-08-02T03:49:21.073Z,930.9
2017-08-02T03:49:34.502Z,930.88
2017-08-02T03:49:48.046Z,930.91
2017-08-02T03:50:00.978Z,930.94
2017-08-02T03:50:14.393Z,930.93
2017-08-02T03:50:26.799Z,930.92
2017-08-02T03:50:40.283Z,930.93
2017-08-02T03:50:53.717Z,930.92
2017-08-02T03:51:07.164Z,930.94
2017-08-02T03:51:20.710Z,930.92
2017-08-02T03:51:33.624Z,930.92
2017-08-02T03:51:46.568Z,930.98
2017-08-02T03:52:00.029Z,930.95
2017-08-02T03:52:12.506Z,930.91
2017-08-02T03:52:25.977Z,930.93
2017-08-02T03:52:39.437Z,930.91
2017-08-02T03:52:52.928Z,930.93
2017-08-02T03:53:06.458Z,930.93
2017-08-02T03:53:19.619Z,930.88
2017-08-02T03:53:32.589Z,930.9
2017-08-02T03:53:46.040Z,930.92
2017-08-02T03:53:59.478Z,930.87
2017-08-02T03:54:12.972Z,930.88
2017-08-02T03:54:26.519Z,930.94
2017-08-02T03:54:39.431Z,930.87
2017-08-02T03:54:52.599Z,930.91
2017-08-02T03:55:06.033Z,930.88
2017-08-02T03:55:19.466Z,930.87
2017-08-02T03:55:32.920Z,930.87
2017-08-02T03:55:46.433Z,930.84
2017-08-02T03:55:59.927Z,930.84
2017-08-02T03:56:13.343Z,930.85
2017-08-02T03:56:26.852Z,930.85
2017-08-02T03:56:40.286Z,930.9
2017-08-02T03:56:53.720Z,930.84
2017-08-02T03:57:07.114Z,930.9
2017-08-02T03:57:19.495Z,930.9
2017-08-02T03:57:32.486Z,930.92
2017-08-02T03:57:46.084Z,930.93
2017-08-02T03:57:59.535Z,930.96
2017-08-02T03:58:12.912Z,930.93
2017-08-02T03:58:26.356Z,930.93
2017-08-02T03:58:39.813Z,930.91
2017-08-02T03:58:53.238Z,930.91
2017-08-02T03:59:06.646Z,930.9